createdAt,value
2023-05-04T00:01:01.324Z,14.75494385
2023-05-04T00:02:02.797Z,14.82543945
2023-05-04T00:03:04.420Z,14.84558105
2023-05-04T00:04:05.513Z,14.78515625
2023-05-04T00:05:06.052Z,14.72473145
2023-05-04T00:06:07.099Z,14.69451904
2023-05-04T00:07:08.365Z,14.61395264
2023-05-04T00:08:09.864Z,14.66430664
2023-05-04T00:09:11.325Z,14.71466064
2023-05-04T00:10:12.821Z,14.71466064
2023-05-04T00:11:14.392Z,14.69451904
2023-05-04T00:12:14.952Z,14.66430664
2023-05-04T00:13:16.185Z,14.64416504
2023-05-04T00:14:17.078Z,14.63409424
2023-05-04T00:15:18.643Z,14.64416504
2023-05-04T00:16:20.099Z,14.63409424
2023-05-04T00:17:21.400Z,14.63409424
2023-05-04T00:18:22.891Z,14.66430664
2023-05-04T00:19:24.301Z,14.66430664
2023-05-04T00:20:25.667Z,14.69451904
2023-05-04T00:21:26.175Z,14.74487305
2023-05-04T00:22:27.600Z,14.72473145
2023-05-04T00:23:29.105Z,14.61395264
2023-05-04T00:25:01.369Z,14.59381104
2023-05-04T00:26:02.635Z,14.48303223
2023-05-04T00:27:03.848Z,14.48303223
2023-05-04T00:28:05.326Z,14.46289063
2023-05-04T00:29:06.368Z,14.45281982
2023-05-04T00:30:07.825Z,14.46289063
2023-05-04T00:31:08.557Z,14.46289063
2023-05-04T00:32:09.678Z,14.45281982
2023-05-04T00:33:10.856Z,14.46289063
2023-05-04T00:34:11.917Z,14.46289063
2023-05-04T00:35:12.282Z,14.46289063
2023-05-04T00:36:13.722Z,14.45281982
2023-05-04T00:37:15.170Z,14.42260742
2023-05-04T00:38:16.341Z,14.44274902
2023-05-04T00:39:17.829Z,14.44274902
2023-05-04T00:40:18.837Z,14.45281982
2023-05-04T00:41:19.901Z,14.44274902
2023-05-04T00:42:20.508Z,14.44274902
2023-05-04T00:43:21.616Z,14.42260742
2023-05-04T00:44:23.203Z,14.41253662
2023-05-04T00:45:24.635Z,14.41253662
2023-05-04T00:46:26.175Z,14.42260742
2023-05-04T00:47:26.873Z,14.42260742
2023-05-04T00:48:28.171Z,14.41253662
2023-05-04T00:50:00.329Z,14.39239502
2023-05-04T00:51:01.845Z,14.36218262
2023-05-04T00:52:02.397Z,14.36218262
2023-05-04T00:53:03.844Z,14.31182861
2023-05-04T00:54:05.377Z,14.36218262
2023-05-04T00:55:06.369Z,14.31182861
2023-05-04T00:56:07.838Z,14.31182861
2023-05-04T00:57:08.517Z,14.27154541
2023-05-04T00:58:09.616Z,14.29168701
2023-05-04T00:59:11.137Z,14.27154541
2023-05-04T01:00:13.628Z,14.21112061
2023-05-04T01:01:14.193Z,14.190979
2023-05-04T01:02:15.676Z,14.21112061
2023-05-04T01:03:17.268Z,14.1204834
2023-05-04T01:04:18.360Z,14.1305542
2023-05-04T01:05:18.888Z,14.190979
2023-05-04T01:06:20.152Z,14.1708374
2023-05-04T01:07:21.700Z,14.2010498
2023-05-04T01:08:23.278Z,14.21112061
2023-05-04T01:09:24.636Z,14.30175781
2023-05-04T01:10:26.141Z,14.31182861
2023-05-04T01:11:27.590Z,14.29168701
2023-05-04T01:12:29.062Z,14.29168701
2023-05-04T01:14:00.683Z,14.24133301
2023-05-04T01:15:02.241Z,14.1305542
2023-05-04T01:16:03.316Z,14.0802002
2023-05-04T01:17:04.472Z,14.06005859
2023-05-04T01:18:05.008Z,14.03991699
2023-05-04T01:19:06.877Z,14.01977539
2023-05-04T01:20:08.334Z,14.04998779
2023-05-04T01:21:09.051Z,14.04998779
2023-05-04T01:22:09.634Z,14.06005859
2023-05-04T01:23:10.881Z,14.04998779
2023-05-04T01:24:12.358Z,14.06005859
2023-05-04T01:25:13.873Z,14.090271
2023-05-04T01:26:15.301Z,14.1104126
2023-05-04T01:27:15.819Z,14.06005859
2023-05-04T01:28:17.821Z,14.04998779
2023-05-04T01:29:19.367Z,14.00970459
2023-05-04T01:30:20.870Z,14.00970459
2023-05-04T01:31:22.361Z,14.00970459
2023-05-04T01:32:23.869Z,14.00970459
2023-05-04T01:33:25.066Z,13.93920898
2023-05-04T01:34:26.385Z,13.95935059
2023-05-04T01:35:27.656Z,13.85864258
2023-05-04T01:36:59.409Z,13.89892578
2023-05-04T01:38:00.638Z,13.87878418
2023-05-04T01:39:02.250Z,13.89892578
2023-05-04T01:40:03.896Z,13.86871338
2023-05-04T01:41:05.169Z,13.90899658
2023-05-04T01:42:06.388Z,13.95935059
2023-05-04T01:43:07.863Z,13.95935059
2023-05-04T01:44:09.437Z,13.87878418
2023-05-04T01:45:10.833Z,13.85864258
2023-05-04T01:46:12.378Z,13.83850098
2023-05-04T01:47:13.907Z,13.80828857
2023-05-04T01:48:14.388Z,13.80828857
2023-05-04T01:49:16.317Z,13.78814697
2023-05-04T01:50:17.826Z,13.75793457
2023-05-04T01:51:19.387Z,13.71765137
2023-05-04T01:52:20.818Z,13.67736816
2023-05-04T01:53:21.334Z,13.65722656
2023-05-04T01:54:22.906Z,13.67736816
2023-05-04T01:55:24.335Z,13.64715576
2023-05-04T01:56:24.903Z,13.68743896
2023-05-04T01:57:26.085Z,13.68743896
2023-05-04T01:58:27.340Z,13.68743896
2023-05-04T01:59:58.970Z,13.65722656
2023-05-04T02:01:00.901Z,13.65722656
2023-05-04T02:02:01.726Z,13.64715576
2023-05-04T02:03:03.906Z,13.67736816
2023-05-04T02:04:04.472Z,13.65722656
2023-05-04T02:05:05.667Z,13.65722656
2023-05-04T02:06:06.888Z,13.64715576
2023-05-04T02:07:08.360Z,13.65722656
2023-05-04T02:08:08.967Z,13.65722656
2023-05-04T02:09:10.837Z,13.65722656
2023-05-04T02:10:11.317Z,13.65722656
2023-05-04T02:11:12.729Z,13.65722656
2023-05-04T02:12:14.355Z,13.65722656
2023-05-04T02:13:15.978Z,13.65722656
2023-05-04T02:14:17.384Z,13.67736816
2023-05-04T02:15:18.798Z,13.68743896
2023-05-04T02:16:20.401Z,13.70758057
2023-05-04T02:17:20.966Z,13.68743896
2023-05-04T02:18:22.209Z,13.71765137
2023-05-04T02:19:23.681Z,13.74786377
2023-05-04T02:20:25.095Z,13.71765137
2023-05-04T02:21:26.749Z,13.71765137
2023-05-04T02:22:27.843Z,13.72772217
2023-05-04T02:24:00.339Z,13.78814697
2023-05-04T02:25:00.838Z,13.80828857
2023-05-04T02:26:02.200Z,13.78814697
2023-05-04T02:27:03.713Z,13.79821777
2023-05-04T02:28:04.876Z,13.78814697
2023-05-04T02:29:06.311Z,13.72772217
2023-05-04T02:30:07.042Z,13.70758057
2023-05-04T02:31:08.091Z,13.72772217
2023-05-04T02:32:09.704Z,13.74786377
2023-05-04T02:33:11.251Z,13.70758057
2023-05-04T02:34:12.338Z,13.71765137
2023-05-04T02:35:12.941Z,13.70758057
2023-05-04T02:36:14.043Z,13.71765137
2023-05-04T02:37:15.379Z,13.68743896
2023-05-04T02:38:15.935Z,13.61694336
2023-05-04T02:39:17.870Z,13.54644775
2023-05-04T02:40:19.331Z,13.49609375
2023-05-04T02:41:20.828Z,13.46588135
2023-05-04T02:42:22.440Z,13.45581055
2023-05-04T02:43:23.889Z,13.47595215
2023-05-04T02:44:25.365Z,13.49609375
2023-05-04T02:45:25.888Z,13.53637695
2023-05-04T02:46:26.875Z,13.56658936
2023-05-04T02:47:28.519Z,13.50616455
2023-05-04T02:49:00.164Z,13.46588135
2023-05-04T02:50:01.444Z,13.46588135
2023-05-04T02:51:02.885Z,13.49609375
2023-05-04T02:52:03.349Z,13.49609375
2023-05-04T02:53:04.685Z,13.50616455
2023-05-04T02:54:06.865Z,13.52630615
2023-05-04T02:55:07.447Z,13.49609375
2023-05-04T02:56:07.981Z,13.46588135
2023-05-04T02:57:09.098Z,13.49609375
2023-05-04T02:58:10.438Z,13.53637695
2023-05-04T02:59:11.896Z,13.52630615
2023-05-04T03:00:12.577Z,13.53637695
2023-05-04T03:01:14.110Z,13.49609375
2023-05-04T03:02:15.847Z,13.50616455
2023-05-04T03:03:17.462Z,13.50616455
2023-05-04T03:04:18.901Z,13.46588135
2023-05-04T03:05:20.364Z,13.42559814
2023-05-04T03:06:20.890Z,13.38531494
2023-05-04T03:07:22.087Z,13.40545654
2023-05-04T03:08:23.388Z,13.43566895
2023-05-04T03:09:24.916Z,13.35510254
2023-05-04T03:10:26.340Z,13.37524414
2023-05-04T03:11:28.459Z,13.35510254
2023-05-04T03:12:59.832Z,13.32489014
2023-05-04T03:14:00.487Z,13.27453613
2023-05-04T03:15:01.104Z,13.28460693
2023-05-04T03:16:02.401Z,13.27453613
2023-05-04T03:17:03.893Z,13.29467773
2023-05-04T03:18:05.386Z,13.34503174
2023-05-04T03:19:06.446Z,13.28460693
2023-05-04T03:20:08.172Z,13.29467773
2023-05-04T03:21:08.503Z,13.27453613
2023-05-04T03:22:09.613Z,13.21411133
2023-05-04T03:23:10.821Z,13.19396973
2023-05-04T03:24:11.914Z,13.24432373
2023-05-04T03:25:12.553Z,13.25439453
2023-05-04T03:26:13.674Z,13.29467773
2023-05-04T03:27:15.098Z,13.22418213
2023-05-04T03:28:16.840Z,13.16375732
2023-05-04T03:29:17.285Z,13.12347412
2023-05-04T03:30:18.882Z,13.12347412
2023-05-04T03:31:20.395Z,13.12347412
2023-05-04T03:32:20.917Z,13.10333252
2023-05-04T03:33:22.049Z,13.12347412
2023-05-04T03:34:23.368Z,13.10333252
2023-05-04T03:35:25.187Z,13.09326172
2023-05-04T03:36:25.773Z,13.09326172
2023-05-04T03:37:26.350Z,13.10333252
2023-05-04T03:38:57.791Z,13.09326172
2023-05-04T03:39:59.110Z,13.06304932
2023-05-04T03:41:00.220Z,13.12347412
2023-05-04T03:42:01.724Z,13.17382813
2023-05-04T03:43:03.199Z,13.14361572
2023-05-04T03:44:04.571Z,13.16375732
2023-05-04T03:45:05.898Z,13.12347412
2023-05-04T03:46:06.609Z,13.14361572
2023-05-04T03:47:08.180Z,13.13354492
2023-05-04T03:48:08.818Z,13.12347412
2023-05-04T03:49:10.058Z,13.09326172
2023-05-04T03:50:11.085Z,13.09326172
2023-05-04T03:51:13.682Z,13.10333252
2023-05-04T03:52:14.892Z,13.09326172
2023-05-04T03:53:15.550Z,13.09326172
2023-05-04T03:54:16.579Z,13.10333252
2023-05-04T03:55:17.563Z,13.17382813
2023-05-04T03:56:18.689Z,13.10333252
2023-05-04T03:57:20.131Z,13.12347412
2023-05-04T03:58:21.688Z,13.14361572
2023-05-04T03:59:23.178Z,13.10333252
2023-05-04T04:00:24.592Z,13.04290771
2023-05-04T04:01:26.266Z,12.99255371
2023-05-04T04:02:58.994Z,13.01269531
2023-05-04T04:03:59.644Z,12.98248291
2023-05-04T04:05:00.586Z,12.96234131
2023-05-04T04:06:01.861Z,12.98248291
2023-05-04T04:07:03.348Z,13.03283691
2023-05-04T04:08:04.876Z,13.01269531
2023-05-04T04:09:06.357Z,12.96234131
2023-05-04T04:10:07.500Z,12.99255371
2023-05-04T04:11:08.870Z,12.98248291
2023-05-04T04:12:10.416Z,12.99255371
2023-05-04T04:13:11.962Z,12.96234131
2023-05-04T04:14:13.589Z,12.94219971
2023-05-04T04:15:14.055Z,12.8817749
2023-05-04T04:16:15.473Z,12.8515625
2023-05-04T04:17:16.912Z,12.8817749
2023-05-04T04:18:17.578Z,12.96234131
2023-05-04T04:19:19.312Z,12.96234131
2023-05-04T04:20:20.603Z,12.94219971
2023-05-04T04:21:22.072Z,12.94219971
2023-05-04T04:22:23.340Z,12.95227051
2023-05-04T04:23:24.759Z,12.96234131
2023-05-04T04:24:26.669Z,12.96234131
2023-05-04T04:25:58.096Z,12.94219971
2023-05-04T04:26:59.117Z,12.92205811
2023-05-04T04:28:00.460Z,12.94219971
2023-05-04T04:29:01.910Z,12.92205811
2023-05-04T04:30:03.751Z,12.94219971
2023-05-04T04:31:04.868Z,12.9119873
2023-05-04T04:32:05.836Z,12.94219971
2023-05-04T04:33:07.134Z,12.94219971
2023-05-04T04:34:07.754Z,12.92205811
2023-05-04T04:35:09.230Z,12.96234131
2023-05-04T04:36:10.749Z,12.94219971
2023-05-04T04:37:11.831Z,12.9119873
2023-05-04T04:38:12.466Z,12.9119873
2023-05-04T04:39:13.740Z,12.8817749
2023-05-04T04:40:15.261Z,12.92205811
2023-05-04T04:41:16.343Z,13.03283691
2023-05-04T04:42:17.377Z,13.09326172
2023-05-04T04:43:17.877Z,13.10333252
2023-05-04T04:44:19.387Z,13.12347412
2023-05-04T04:45:20.885Z,13.03283691
2023-05-04T04:46:21.459Z,12.96234131
2023-05-04T04:47:22.829Z,12.94219971
2023-05-04T04:48:23.396Z,12.8918457
2023-05-04T04:49:24.771Z,12.8918457
2023-05-04T04:50:25.929Z,12.8515625
2023-05-04T04:51:58.345Z,12.7911377
2023-05-04T04:52:59.388Z,12.8012085
2023-05-04T04:54:00.916Z,12.8012085
2023-05-04T04:55:02.390Z,12.77099609
2023-05-04T04:56:03.066Z,12.76092529
2023-05-04T04:57:04.085Z,12.76092529
2023-05-04T04:58:05.360Z,12.8112793
2023-05-04T04:59:06.943Z,12.8717041
2023-05-04T05:00:07.611Z,12.8817749
2023-05-04T05:01:08.943Z,12.8717041
2023-05-04T05:02:10.335Z,12.8112793
2023-05-04T05:03:11.354Z,12.8717041
2023-05-04T05:04:12.918Z,12.8515625
2023-05-04T05:05:14.475Z,12.9119873
2023-05-04T05:06:15.901Z,12.95227051
2023-05-04T05:07:17.366Z,13.01269531
2023-05-04T05:08:18.853Z,13.09326172
2023-05-04T05:09:19.870Z,13.12347412
2023-05-04T05:10:21.329Z,13.12347412
2023-05-04T05:11:22.497Z,13.14361572
2023-05-04T05:12:23.862Z,13.19396973
2023-05-04T05:13:24.400Z,13.19396973
2023-05-04T05:14:26.045Z,13.19396973
2023-05-04T05:15:57.538Z,13.19396973
2023-05-04T05:16:58.872Z,13.22418213
2023-05-04T05:17:59.942Z,13.21411133
2023-05-04T05:19:01.330Z,13.21411133
2023-05-04T05:20:02.578Z,13.22418213
2023-05-04T05:21:02.873Z,13.27453613
2023-05-04T05:22:04.100Z,13.32489014
2023-05-04T05:23:05.089Z,13.34503174
2023-05-04T05:24:06.403Z,13.38531494
2023-05-04T05:25:07.347Z,13.45581055
2023-05-04T05:26:07.951Z,13.49609375
2023-05-04T05:27:09.319Z,13.50616455
2023-05-04T05:28:10.424Z,13.52630615
2023-05-04T05:29:11.839Z,13.49609375
2023-05-04T05:30:12.372Z,13.47595215
2023-05-04T05:31:13.652Z,13.50616455
2023-05-04T05:32:15.946Z,13.52630615
2023-05-04T05:33:17.947Z,13.49609375
2023-05-04T05:34:19.332Z,13.53637695
2023-05-04T05:35:19.844Z,13.53637695
2023-05-04T05:36:21.455Z,13.54644775
2023-05-04T05:37:23.277Z,13.56658936
2023-05-04T05:38:24.818Z,13.62701416
2023-05-04T05:39:26.341Z,13.67736816
2023-05-04T05:40:57.857Z,13.68743896
2023-05-04T05:41:59.366Z,13.71765137
2023-05-04T05:43:01.020Z,13.74786377
2023-05-04T05:44:01.688Z,13.71765137
2023-05-04T05:45:03.160Z,13.68743896
2023-05-04T05:46:04.375Z,13.70758057
2023-05-04T05:47:04.852Z,13.68743896
2023-05-04T05:48:06.245Z,13.70758057
2023-05-04T05:49:07.721Z,13.74786377
2023-05-04T05:50:08.881Z,13.74786377
2023-05-04T05:51:09.841Z,13.78814697
2023-05-04T05:52:10.311Z,13.74786377
2023-05-04T05:53:11.835Z,13.74786377
2023-05-04T05:54:13.534Z,13.78814697
2023-05-04T05:55:14.701Z,13.78814697
2023-05-04T05:56:15.836Z,13.79821777
2023-05-04T05:57:16.856Z,13.80828857
2023-05-04T05:58:18.425Z,13.85864258
2023-05-04T05:59:19.906Z,13.89892578
2023-05-04T06:00:21.451Z,13.92913818
2023-05-04T06:01:22.305Z,13.92913818
2023-05-04T06:02:23.394Z,13.90899658
2023-05-04T06:03:25.022Z,13.95935059
2023-05-04T06:04:56.990Z,13.97949219
2023-05-04T06:05:58.360Z,14.00970459
2023-05-04T06:07:00.070Z,14.01977539
2023-05-04T06:08:01.862Z,14.04998779
2023-05-04T06:09:02.569Z,14.03991699
2023-05-04T06:10:03.914Z,14.04998779
2023-05-04T06:11:05.387Z,14.03991699
2023-05-04T06:12:06.913Z,14.03991699
2023-05-04T06:13:08.445Z,14.0802002
2023-05-04T06:14:08.924Z,14.090271
2023-05-04T06:15:10.281Z,14.090271
2023-05-04T06:16:11.374Z,14.1104126
2023-05-04T06:17:13.479Z,14.0802002
2023-05-04T06:18:13.964Z,14.06005859
2023-05-04T06:19:15.207Z,14.06005859
2023-05-04T06:20:16.821Z,14.090271
2023-05-04T06:21:18.463Z,14.1305542
2023-05-04T06:22:19.856Z,14.21112061
2023-05-04T06:23:20.836Z,14.29168701
2023-05-04T06:24:22.100Z,14.31182861
2023-05-04T06:25:23.417Z,14.36218262
2023-05-04T06:26:23.970Z,14.39239502
2023-05-04T06:27:56.378Z,14.42260742
2023-05-04T06:28:57.377Z,14.44274902
2023-05-04T06:29:58.872Z,14.46289063
2023-05-04T06:31:00.381Z,14.46289063
2023-05-04T06:32:01.060Z,14.53338623
2023-05-04T06:33:02.886Z,14.54345703
2023-05-04T06:34:03.368Z,14.56359863
2023-05-04T06:35:04.659Z,14.57366943
2023-05-04T06:36:06.216Z,14.56359863
2023-05-04T06:37:07.391Z,14.56359863
2023-05-04T06:38:09.530Z,14.59381104
2023-05-04T06:39:10.038Z,14.63409424
2023-05-04T06:40:11.420Z,14.64416504
2023-05-04T06:41:12.695Z,14.64416504
2023-05-04T06:42:14.179Z,14.69451904
2023-05-04T06:43:15.801Z,14.69451904
2023-05-04T06:44:17.362Z,14.71466064
2023-05-04T06:45:18.403Z,14.67437744
2023-05-04T06:46:20.044Z,14.67437744
2023-05-04T06:47:21.405Z,14.67437744
2023-05-04T06:48:21.997Z,14.71466064
2023-05-04T06:49:23.187Z,14.78515625
2023-05-04T06:50:55.337Z,14.77508545
2023-05-04T06:51:56.756Z,14.77508545
2023-05-04T06:52:57.888Z,14.81536865
2023-05-04T06:53:58.397Z,14.82543945
2023-05-04T06:54:59.589Z,14.84558105
2023-05-04T06:56:00.658Z,14.84558105
2023-05-04T06:57:02.294Z,14.85565186
2023-05-04T06:58:03.374Z,14.89593506
2023-05-04T06:59:04.901Z,14.90600586
2023-05-04T07:00:05.773Z,14.93621826
2023-05-04T07:01:06.646Z,14.94628906
2023-05-04T07:02:07.189Z,14.97650146
2023-05-04T07:03:08.700Z,15.00671387
2023-05-04T07:04:09.052Z,14.99664307
2023-05-04T07:05:10.075Z,14.99664307
2023-05-04T07:06:11.416Z,15.02685547
2023-05-04T07:07:12.953Z,15.04699707
2023-05-04T07:08:14.494Z,15.06713867
2023-05-04T07:09:15.129Z,15.08728027
2023-05-04T07:10:16.608Z,15.12756348
2023-05-04T07:11:17.594Z,15.15777588
2023-05-04T07:12:18.856Z,15.17791748
2023-05-04T07:13:20.464Z,15.18798828
2023-05-04T07:14:21.123Z,15.18798828
2023-05-04T07:15:22.732Z,15.19805908
2023-05-04T07:16:24.385Z,15.21820068
2023-05-04T07:17:56.155Z,15.21820068
2023-05-04T07:18:57.430Z,15.26855469
2023-05-04T07:19:58.937Z,15.29876709
2023-05-04T07:21:11.245Z,15.30883789
2023-05-04T07:22:00.660Z,15.34912109
2023-05-04T07:23:02.887Z,15.3793335
2023-05-04T07:24:04.437Z,15.3994751
2023-05-04T07:25:05.922Z,15.3994751
2023-05-04T07:26:06.385Z,15.4296875
2023-05-04T07:27:07.650Z,15.4800415
2023-05-04T07:28:08.944Z,15.4901123
2023-05-04T07:29:10.357Z,15.53039551
2023-05-04T07:30:11.360Z,15.53039551
2023-05-04T07:31:12.353Z,15.56060791
2023-05-04T07:32:12.854Z,15.59082031
2023-05-04T07:33:13.608Z,15.60089111
2023-05-04T07:34:14.864Z,15.60089111
2023-05-04T07:35:15.354Z,15.60089111
2023-05-04T07:36:16.381Z,15.59082031
2023-05-04T07:37:17.342Z,15.59082031
2023-05-04T07:38:17.855Z,15.60089111
2023-05-04T07:39:18.871Z,15.60089111
2023-05-04T07:40:20.379Z,15.60089111
2023-05-04T07:41:20.845Z,15.62103271
2023-05-04T07:42:21.317Z,15.67138672
2023-05-04T07:43:22.376Z,15.67138672
2023-05-04T07:44:22.861Z,15.70159912
2023-05-04T07:45:54.603Z,15.73181152
2023-05-04T07:46:55.579Z,15.74188232
2023-05-04T07:47:56.905Z,15.77209473
2023-05-04T07:48:57.885Z,15.77209473
2023-05-04T07:49:59.366Z,15.80230713
2023-05-04T07:50:59.909Z,15.84259033
2023-05-04T07:52:01.060Z,15.86273193
2023-05-04T07:53:02.067Z,15.88287354
2023-05-04T07:54:03.376Z,15.92315674
2023-05-04T07:55:04.397Z,15.96343994
2023-05-04T07:56:05.873Z,15.98358154
2023-05-04T07:57:06.317Z,16.03393555
2023-05-04T07:58:07.378Z,16.04400635
2023-05-04T07:59:08.375Z,16.07421875
2023-05-04T08:00:08.874Z,16.07421875
2023-05-04T08:01:10.159Z,16.10443115
2023-05-04T08:02:12.169Z,16.13464355
2023-05-04T08:03:12.941Z,16.13464355
2023-05-04T08:04:13.677Z,16.17492676
2023-05-04T08:05:15.227Z,16.21520996
2023-05-04T08:06:16.364Z,16.24542236
2023-05-04T08:07:17.325Z,16.28570557
2023-05-04T08:08:18.362Z,16.29577637
2023-05-04T08:09:19.113Z,16.33605957
2023-05-04T08:10:19.814Z,16.39648438
2023-05-04T08:11:21.234Z,16.43676758
2023-05-04T08:12:21.152Z,16.49719238
2023-05-04T08:13:22.390Z,16.51733398
2023-05-04T08:14:23.091Z,16.61804199
2023-05-04T08:15:55.250Z,16.62811279
2023-05-04T08:16:56.374Z,16.6583252
2023-05-04T08:17:57.011Z,16.668396
2023-05-04T08:18:57.621Z,16.6885376
2023-05-04T08:19:58.838Z,16.6986084
2023-05-04T08:21:00.571Z,16.71875
2023-05-04T08:22:01.259Z,16.6885376
2023-05-04T08:23:02.667Z,16.668396
2023-05-04T08:24:04.182Z,16.61804199
2023-05-04T08:25:05.926Z,16.59790039
2023-05-04T08:26:06.292Z,16.61804199
2023-05-04T08:27:08.743Z,16.61804199
2023-05-04T08:28:09.164Z,16.62811279
2023-05-04T08:29:10.521Z,16.62811279
2023-05-04T08:30:10.910Z,16.62811279
2023-05-04T08:31:11.514Z,16.62811279
2023-05-04T08:32:12.640Z,16.6583252
2023-05-04T08:33:14.049Z,16.6583252
2023-05-04T08:34:15.410Z,16.7288208
2023-05-04T08:35:15.881Z,16.7791748
2023-05-04T08:36:17.403Z,16.79931641
2023-05-04T08:37:17.918Z,16.80938721
2023-05-04T08:38:19.394Z,16.81945801
2023-05-04T08:39:20.904Z,16.81945801
2023-05-04T08:40:22.448Z,16.83959961
2023-05-04T08:41:23.473Z,16.84967041
2023-05-04T08:42:54.950Z,16.86981201
2023-05-04T08:43:56.138Z,16.86981201
2023-05-04T08:44:57.670Z,16.84967041
2023-05-04T08:45:59.257Z,16.84967041
2023-05-04T08:47:00.411Z,16.83959961
2023-05-04T08:48:01.960Z,16.83959961
2023-05-04T08:49:03.390Z,16.83959961
2023-05-04T08:50:04.911Z,16.83959961
2023-05-04T08:51:05.398Z,16.81945801
2023-05-04T08:52:06.898Z,16.80938721
2023-05-04T08:53:07.559Z,16.81945801
2023-05-04T08:54:08.962Z,16.81945801
2023-05-04T08:55:10.418Z,16.84967041
2023-05-04T08:56:10.995Z,16.84967041
2023-05-04T08:57:12.216Z,16.87988281
2023-05-04T08:58:13.876Z,16.86981201
2023-05-04T08:59:15.378Z,16.84967041
2023-05-04T09:00:15.974Z,16.84967041
2023-05-04T09:01:17.263Z,16.86981201
2023-05-04T09:02:18.637Z,16.87988281
2023-05-04T09:03:20.010Z,16.86981201
2023-05-04T09:04:21.384Z,16.87988281
2023-05-04T09:05:21.857Z,16.90002441
2023-05-04T09:06:22.342Z,16.91009521
2023-05-04T09:07:23.252Z,16.96044922
2023-05-04T09:08:54.618Z,16.98059082
2023-05-04T09:09:55.868Z,16.98059082
2023-05-04T09:10:56.881Z,16.98059082
2023-05-04T09:11:57.875Z,16.99066162
2023-05-04T09:12:58.459Z,17.00073242
2023-05-04T09:13:59.878Z,17.00073242
2023-05-04T09:15:00.861Z,17.00073242
2023-05-04T09:16:01.388Z,17.00073242
2023-05-04T09:17:01.840Z,17.02087402
2023-05-04T09:18:03.161Z,17.03094482
2023-05-04T09:19:04.387Z,17.05108643
2023-05-04T09:20:04.913Z,17.07122803
2023-05-04T09:21:07.348Z,17.10144043
2023-05-04T09:22:07.880Z,17.12158203
2023-05-04T09:23:08.917Z,17.15179443
2023-05-04T09:24:09.908Z,17.17193604
2023-05-04T09:25:11.391Z,17.20214844
2023-05-04T09:26:11.871Z,17.22229004
2023-05-04T09:27:12.415Z,17.21221924
2023-05-04T09:28:13.872Z,17.24243164
2023-05-04T09:29:15.374Z,17.25250244
2023-05-04T09:30:16.396Z,17.27264404
2023-05-04T09:31:17.987Z,17.28271484
2023-05-04T09:32:18.384Z,17.30285645
2023-05-04T09:33:18.886Z,17.32299805
2023-05-04T09:34:20.580Z,17.32299805
2023-05-04T09:35:31.908Z,17.33306885
2023-05-04T09:36:22.385Z,17.33306885
2023-05-04T09:37:54.132Z,17.35321045
2023-05-04T09:38:55.395Z,17.35321045
2023-05-04T09:39:56.427Z,17.38342285
2023-05-04T09:40:57.387Z,17.38342285
2023-05-04T09:41:57.964Z,17.39349365
2023-05-04T09:42:59.190Z,17.40356445
2023-05-04T09:44:01.370Z,17.45391846
2023-05-04T09:45:03.096Z,17.47406006
2023-05-04T09:46:03.931Z,17.49420166
2023-05-04T09:47:04.466Z,17.51434326
2023-05-04T09:48:05.698Z,17.53448486
2023-05-04T09:49:06.915Z,17.53448486
2023-05-04T09:50:08.379Z,17.53448486
2023-05-04T09:51:08.843Z,17.53448486
2023-05-04T09:52:10.345Z,17.53448486
2023-05-04T09:53:11.657Z,17.55462646
2023-05-04T09:54:12.882Z,17.55462646
2023-05-04T09:55:14.408Z,17.58483887
2023-05-04T09:56:15.365Z,17.60498047
2023-05-04T09:57:16.919Z,17.62512207
2023-05-04T09:58:17.414Z,17.62512207
2023-05-04T09:59:17.970Z,17.65533447
2023-05-04T10:00:19.528Z,17.69561768
2023-05-04T10:01:19.912Z,17.72583008
2023-05-04T10:02:23.256Z,17.75604248
2023-05-04T10:03:53.910Z,17.76611328
2023-05-04T10:04:55.385Z,17.78625488
2023-05-04T10:05:57.037Z,17.78625488
2023-05-04T10:06:58.414Z,17.79632568
2023-05-04T10:07:59.906Z,17.80639648
2023-05-04T10:09:00.401Z,17.80639648
2023-05-04T10:10:00.929Z,17.83660889
2023-05-04T10:11:02.402Z,17.86682129
2023-05-04T10:12:02.961Z,17.88696289
2023-05-04T10:13:04.215Z,17.88696289
2023-05-04T10:14:05.652Z,17.91717529
2023-05-04T10:15:07.248Z,17.93731689
2023-05-04T10:16:08.465Z,17.9473877
2023-05-04T10:17:08.973Z,17.9574585
2023-05-04T10:18:10.165Z,17.9574585
2023-05-04T10:19:11.429Z,17.9876709
2023-05-04T10:20:12.902Z,18.0078125
2023-05-04T10:21:44.402Z,18.0480957
2023-05-04T10:23:16.217Z,18.0682373
2023-05-04T10:24:17.394Z,18.08837891
2023-05-04T10:25:18.916Z,18.12866211
2023-05-04T10:26:19.442Z,18.15887451
2023-05-04T10:27:20.652Z,18.19915771
2023-05-04T10:28:53.414Z,18.22937012
2023-05-04T10:29:54.914Z,18.24951172
2023-05-04T10:30:56.474Z,18.27972412
2023-05-04T10:31:58.136Z,18.30993652
2023-05-04T10:32:59.459Z,18.34014893
2023-05-04T10:34:00.425Z,18.32000732
2023-05-04T10:35:01.942Z,18.36029053
2023-05-04T10:36:02.531Z,18.36029053
2023-05-04T10:37:03.119Z,18.38043213
2023-05-04T10:38:03.863Z,18.38043213
2023-05-04T10:39:05.424Z,18.38043213
2023-05-04T10:40:07.951Z,18.39050293
2023-05-04T10:41:08.376Z,18.41064453
2023-05-04T10:42:08.976Z,18.42071533
2023-05-04T10:43:10.193Z,18.42071533
2023-05-04T10:44:11.863Z,18.46099854
2023-05-04T10:45:13.511Z,18.46099854
2023-05-04T10:46:14.988Z,18.47106934
2023-05-04T10:47:15.515Z,18.49121094
2023-05-04T10:48:16.772Z,18.51135254
2023-05-04T10:49:18.327Z,18.53149414
2023-05-04T10:50:19.426Z,18.54156494
2023-05-04T10:51:19.981Z,18.57177734
2023-05-04T10:52:21.416Z,18.64227295
2023-05-04T10:53:53.183Z,18.65234375
2023-05-04T10:54:55.401Z,18.66241455
2023-05-04T10:55:55.910Z,18.68255615
2023-05-04T10:56:57.212Z,18.69262695
2023-05-04T10:57:58.412Z,18.71276855
2023-05-04T10:58:59.901Z,18.72283936
2023-05-04T11:00:00.374Z,18.75305176
2023-05-04T11:01:01.732Z,18.76312256
2023-05-04T11:02:02.250Z,18.78326416
2023-05-04T11:03:04.622Z,18.79333496
2023-05-04T11:04:04.950Z,18.82354736
2023-05-04T11:05:06.395Z,18.84368896
2023-05-04T11:06:07.437Z,18.86383057
2023-05-04T11:07:09.083Z,18.86383057
2023-05-04T11:08:09.460Z,18.84368896
2023-05-04T11:09:10.701Z,18.86383057
2023-05-04T11:10:12.168Z,18.86383057
2023-05-04T11:11:13.754Z,18.87390137
2023-05-04T11:12:14.898Z,18.89404297
2023-05-04T11:13:15.509Z,18.93432617
2023-05-04T11:14:16.923Z,18.96453857
2023-05-04T11:15:18.395Z,18.99475098
2023-05-04T11:16:19.482Z,19.02496338
2023-05-04T11:17:28.114Z,19.04510498